Nina — ICMG — position and weather

sailwx.info

Track history (hours):
 
Tides and Currents Weather Stations Pressure Air Temp Water Temp Dewpoint Dewpoint Depression Visibility Wind Speed Wind Dir Waves Ship Positions

Nina

Last reported at 2014-Jul-06 13:32 UTC. Time now 2014-Jul-30 17:17 UTC.
Position N 09°06' E 123°19'.
Warning: this ship's position is 24 days out of date.

Length 180 m; draft 10.8 m.

Type: Tanker. MMSI: 247239700.

Date/timePositionNaut miles runAvg speedWind from/ knotsBaromVisibWave heightAir tempDewpointWater temp
2014-Jul-06 13:32N 09°06' E 123°19'8 1.0
2014-Jul-06 05:24N 09°13' E 123°17'0 0.0
2014-Jul-06 04:30N 09°13' E 123°17'0 0.0
2014-Jul-06 00:22N 09°13' E 123°17'0 0.0
2014-Jul-05 22:16N 09°13' E 123°17'0 0.0
2014-Jul-05 21:03N 09°13' E 123°17'0 0.0
2014-Jul-05 20:30N 09°13' E 123°17'0 0.0
2014-Jul-05 19:33N 09°13' E 123°17'0 0.0
2014-Jul-05 18:33N 09°13' E 123°17'0 0.0
2014-Jul-05 17:33N 09°13' E 123°17'0 0.0
2014-Jul-05 16:33N 09°13' E 123°17'0 0.0
2014-Jul-05 15:33N 09°13' E 123°17'0 0.0
2014-Jul-05 14:34N 09°13' E 123°17'0 0.0
2014-Jul-05 13:33N 09°13' E 123°17'0 0.0
2014-Jul-05 12:33N 09°13' E 123°17'0 0.0
2014-Jul-05 11:33N 09°13' E 123°17'0 0.0
2014-Jul-05 10:33N 09°13' E 123°17'0 0.0
2014-Jul-05 09:33N 09°13' E 123°17'0 0.0
2014-Jul-05 08:33N 09°13' E 123°17'0 0.0
2014-Jul-05 07:33N 09°13' E 123°17'0 0.0
2014-Jul-05 06:33N 09°13' E 123°17'0 0.0
2014-Jul-05 05:33N 09°13' E 123°17'0 0.0
2014-Jul-05 04:33N 09°13' E 123°17'0 0.0
2014-Jul-05 03:33N 09°13' E 123°17'0 0.0
2014-Jul-05 02:33N 09°13' E 123°17'0 0.0
2014-Jul-05 01:33N 09°13' E 123°17'0 0.2
2014-Jul-05 00:33N 09°13' E 123°17'1 0.8
2014-Jul-04 23:33N 09°13' E 123°18'6 5.7
2014-Jul-04 22:33N 09°18' E 123°21'1 0.9
2014-Jul-04 21:33N 09°18' E 123°21'0 0.1
2014-Jul-04 20:33N 09°19' E 123°21'0 0.1
2014-Jul-04 19:33N 09°19' E 123°21'0 0.1
2014-Jul-04 18:33N 09°19' E 123°21'1 0.5
2014-Jul-04 17:33N 09°18' E 123°22'1 0.7
2014-Jul-04 16:33N 09°17' E 123°22'1111.5
2014-Jul-04 15:33N 09°06' E 123°20'  
Track history (hours):
 
Tides and Currents Weather Stations Pressure Air Temp Water Temp Dewpoint Dewpoint Depression Visibility Wind Speed Wind Dir Waves Ship Positions

Nina

Last reported at 2014-Jul-06 13:32 UTC. Time now 2014-Jul-30 17:17 UTC.
Position N 09°06' E 123°19'.
Warning: this ship's position is 24 days out of date.

Length 180 m; draft 10.8 m.

Type: Tanker. MMSI: 247239700.

Date/timePositionNaut miles runAvg speedWind from/ knotsBaromVisibWave heightAir tempDewpointWater temp
2014-Jul-06 13:32N 09°06' E 123°19'8 1.0
2014-Jul-06 05:24N 09°13' E 123°17'0 0.0
2014-Jul-06 04:30N 09°13' E 123°17'0 0.0
2014-Jul-06 00:22N 09°13' E 123°17'0 0.0
2014-Jul-05 22:16N 09°13' E 123°17'0 0.0
2014-Jul-05 21:03N 09°13' E 123°17'0 0.0
2014-Jul-05 20:30N 09°13' E 123°17'0 0.0
2014-Jul-05 19:33N 09°13' E 123°17'0 0.0
2014-Jul-05 18:33N 09°13' E 123°17'0 0.0
2014-Jul-05 17:33N 09°13' E 123°17'0 0.0
2014-Jul-05 16:33N 09°13' E 123°17'0 0.0
2014-Jul-05 15:33N 09°13' E 123°17'0 0.0
2014-Jul-05 14:34N 09°13' E 123°17'0 0.0
2014-Jul-05 13:33N 09°13' E 123°17'0 0.0
2014-Jul-05 12:33N 09°13' E 123°17'0 0.0
2014-Jul-05 11:33N 09°13' E 123°17'0 0.0
2014-Jul-05 10:33N 09°13' E 123°17'0 0.0
2014-Jul-05 09:33N 09°13' E 123°17'0 0.0
2014-Jul-05 08:33N 09°13' E 123°17'0 0.0
2014-Jul-05 07:33N 09°13' E 123°17'0 0.0
2014-Jul-05 06:33N 09°13' E 123°17'0 0.0
2014-Jul-05 05:33N 09°13' E 123°17'0 0.0
2014-Jul-05 04:33N 09°13' E 123°17'0 0.0
2014-Jul-05 03:33N 09°13' E 123°17'0 0.0
2014-Jul-05 02:33N 09°13' E 123°17'0 0.0
2014-Jul-05 01:33N 09°13' E 123°17'0 0.2
2014-Jul-05 00:33N 09°13' E 123°17'1 0.8
2014-Jul-04 23:33N 09°13' E 123°18'6 5.7
2014-Jul-04 22:33N 09°18' E 123°21'1 0.9
2014-Jul-04 21:33N 09°18' E 123°21'0 0.1
2014-Jul-04 20:33N 09°19' E 123°21'0 0.1
2014-Jul-04 19:33N 09°19' E 123°21'0 0.1
2014-Jul-04 18:33N 09°19' E 123°21'1 0.5
2014-Jul-04 17:33N 09°18' E 123°22'1 0.7
2014-Jul-04 16:33N 09°17' E 123°22'1111.5
2014-Jul-04 15:33N 09°06' E 123°20'  

Dump ship's entire track history